sensor_id;sensor_type;location;lat;lon;timestamp;P1;durP1;ratioP1;P2;durP2;ratioP2
41201;SDS011;26936;50.524;8.684;2023-07-31T00:02:22;6.53;;;1.47;;
41201;SDS011;26936;50.524;8.684;2023-07-31T00:04:47;4.27;;;1.33;;
41201;SDS011;26936;50.524;8.684;2023-07-31T00:07:13;6.05;;;1.90;;
41201;SDS011;26936;50.524;8.684;2023-07-31T00:09:39;6.18;;;1.55;;
41201;SDS011;26936;50.524;8.684;2023-07-31T00:12:04;4.90;;;1.63;;
41201;SDS011;26936;50.524;8.684;2023-07-31T00:14:30;6.57;;;1.75;;
41201;SDS011;26936;50.524;8.684;2023-07-31T00:16:55;7.10;;;1.50;;
41201;SDS011;26936;50.524;8.684;2023-07-31T00:19:20;4.53;;;1.70;;
41201;SDS011;26936;50.524;8.684;2023-07-31T00:21:45;4.23;;;1.80;;
41201;SDS011;26936;50.524;8.684;2023-07-31T00:24:11;5.43;;;1.70;;
41201;SDS011;26936;50.524;8.684;2023-07-31T00:26:36;3.78;;;1.50;;
41201;SDS011;26936;50.524;8.684;2023-07-31T00:29:01;3.35;;;1.58;;
41201;SDS011;26936;50.524;8.684;2023-07-31T00:31:27;4.38;;;1.90;;
41201;SDS011;26936;50.524;8.684;2023-07-31T00:33:52;8.30;;;1.40;;
41201;SDS011;26936;50.524;8.684;2023-07-31T00:36:17;4.13;;;1.65;;
41201;SDS011;26936;50.524;8.684;2023-07-31T00:38:43;5.30;;;1.70;;
41201;SDS011;26936;50.524;8.684;2023-07-31T00:41:09;5.45;;;1.65;;
41201;SDS011;26936;50.524;8.684;2023-07-31T00:43:34;5.95;;;1.65;;
41201;SDS011;26936;50.524;8.684;2023-07-31T00:45:59;5.80;;;1.48;;
41201;SDS011;26936;50.524;8.684;2023-07-31T00:48:24;7.13;;;1.75;;
41201;SDS011;26936;50.524;8.684;2023-07-31T00:50:50;4.57;;;1.55;;
41201;SDS011;26936;50.524;8.684;2023-07-31T00:53:16;4.53;;;1.55;;
41201;SDS011;26936;50.524;8.684;2023-07-31T00:55:42;5.03;;;1.65;;
41201;SDS011;26936;50.524;8.684;2023-07-31T00:58:07;7.90;;;2.10;;
41201;SDS011;26936;50.524;8.684;2023-07-31T01:00:32;4.28;;;1.55;;
41201;SDS011;26936;50.524;8.684;2023-07-31T01:02:58;4.07;;;1.50;;
41201;SDS011;26936;50.524;8.684;2023-07-31T01:05:36;3.67;;;1.50;;
41201;SDS011;26936;50.524;8.684;2023-07-31T01:08:34;4.35;;;1.83;;
41201;SDS011;26936;50.524;8.684;2023-07-31T01:11:16;5.43;;;1.95;;
41201;SDS011;26936;50.524;8.684;2023-07-31T01:13:46;4.25;;;1.70;;
41201;SDS011;26936;50.524;8.684;2023-07-31T01:16:12;6.03;;;1.50;;
41201;SDS011;26936;50.524;8.684;2023-07-31T01:18:37;6.70;;;1.73;;
41201;SDS011;26936;50.524;8.684;2023-07-31T01:21:18;4.15;;;1.60;;
41201;SDS011;26936;50.524;8.684;2023-07-31T01:26:45;4.35;;;1.60;;
41201;SDS011;26936;50.524;8.684;2023-07-31T01:32:01;5.25;;;1.73;;
41201;SDS011;26936;50.524;8.684;2023-07-31T01:34:29;4.75;;;1.85;;
41201;SDS011;26936;50.524;8.684;2023-07-31T01:36:55;5.35;;;1.75;;
41201;SDS011;26936;50.524;8.684;2023-07-31T01:39:23;7.13;;;1.52;;
41201;SDS011;26936;50.524;8.684;2023-07-31T01:41:48;4.93;;;1.90;;
41201;SDS011;26936;50.524;8.684;2023-07-31T01:44:13;4.40;;;1.60;;
41201;SDS011;26936;50.524;8.684;2023-07-31T01:46:38;6.93;;;1.63;;
41201;SDS011;26936;50.524;8.684;2023-07-31T01:49:05;4.47;;;1.60;;
41201;SDS011;26936;50.524;8.684;2023-07-31T01:51:31;4.25;;;1.63;;
41201;SDS011;26936;50.524;8.684;2023-07-31T01:53:59;8.63;;;2.38;;
41201;SDS011;26936;50.524;8.684;2023-07-31T01:56:27;3.67;;;1.77;;
41201;SDS011;26936;50.524;8.684;2023-07-31T01:58:52;3.83;;;1.65;;
41201;SDS011;26936;50.524;8.684;2023-07-31T02:01:18;6.37;;;1.63;;
41201;SDS011;26936;50.524;8.684;2023-07-31T02:03:43;5.00;;;1.93;;
41201;SDS011;26936;50.524;8.684;2023-07-31T02:06:08;8.73;;;2.30;;
41201;SDS011;26936;50.524;8.684;2023-07-31T02:08:34;4.88;;;1.92;;
41201;SDS011;26936;50.524;8.684;2023-07-31T02:10:59;4.70;;;1.73;;
41201;SDS011;26936;50.524;8.684;2023-07-31T02:13:24;6.35;;;1.85;;
41201;SDS011;26936;50.524;8.684;2023-07-31T02:15:50;6.78;;;1.80;;
41201;SDS011;26936;50.524;8.684;2023-07-31T02:18:15;6.80;;;2.08;;
41201;SDS011;26936;50.524;8.684;2023-07-31T02:20:41;7.90;;;2.75;;
41201;SDS011;26936;50.524;8.684;2023-07-31T02:23:06;7.28;;;1.88;;
41201;SDS011;26936;50.524;8.684;2023-07-31T02:25:31;5.43;;;1.97;;
41201;SDS011;26936;50.524;8.684;2023-07-31T02:27:57;3.40;;;2.00;;
41201;SDS011;26936;50.524;8.684;2023-07-31T02:30:22;4.33;;;1.77;;
41201;SDS011;26936;50.524;8.684;2023-07-31T02:32:47;4.70;;;2.25;;
41201;SDS011;26936;50.524;8.684;2023-07-31T02:35:12;4.40;;;1.70;;
41201;SDS011;26936;50.524;8.684;2023-07-31T02:37:40;5.75;;;1.83;;
41201;SDS011;26936;50.524;8.684;2023-07-31T02:40:07;5.30;;;2.00;;
41201;SDS011;26936;50.524;8.684;2023-07-31T02:42:32;4.45;;;2.00;;
41201;SDS011;26936;50.524;8.684;2023-07-31T02:44:57;5.63;;;2.00;;
41201;SDS011;26936;50.524;8.684;2023-07-31T02:47:23;5.40;;;2.17;;
41201;SDS011;26936;50.524;8.684;2023-07-31T02:49:48;4.38;;;2.13;;
41201;SDS011;26936;50.524;8.684;2023-07-31T02:52:13;7.25;;;2.13;;
41201;SDS011;26936;50.524;8.684;2023-07-31T02:54:39;5.32;;;1.98;;
41201;SDS011;26936;50.524;8.684;2023-07-31T02:57:04;5.65;;;2.17;;
41201;SDS011;26936;50.524;8.684;2023-07-31T02:59:29;4.95;;;2.13;;
41201;SDS011;26936;50.524;8.684;2023-07-31T03:01:55;3.92;;;1.98;;
41201;SDS011;26936;50.524;8.684;2023-07-31T03:04:20;5.13;;;1.70;;
41201;SDS011;26936;50.524;8.684;2023-07-31T03:06:45;3.92;;;1.52;;
41201;SDS011;26936;50.524;8.684;2023-07-31T03:09:11;8.90;;;2.90;;
41201;SDS011;26936;50.524;8.684;2023-07-31T03:11:36;6.90;;;2.13;;
41201;SDS011;26936;50.524;8.684;2023-07-31T03:14:01;3.50;;;1.90;;
41201;SDS011;26936;50.524;8.684;2023-07-31T03:16:26;4.85;;;1.92;;
41201;SDS011;26936;50.524;8.684;2023-07-31T03:18:52;5.07;;;2.20;;
41201;SDS011;26936;50.524;8.684;2023-07-31T03:21:17;4.70;;;2.27;;
41201;SDS011;26936;50.524;8.684;2023-07-31T03:23:42;6.57;;;2.67;;
41201;SDS011;26936;50.524;8.684;2023-07-31T03:26:08;4.57;;;2.20;;
41201;SDS011;26936;50.524;8.684;2023-07-31T03:28:34;5.25;;;2.28;;
41201;SDS011;26936;50.524;8.684;2023-07-31T03:30:59;4.70;;;2.40;;
41201;SDS011;26936;50.524;8.684;2023-07-31T03:33:25;3.28;;;1.70;;
41201;SDS011;26936;50.524;8.684;2023-07-31T03:35:51;5.93;;;2.35;;
41201;SDS011;26936;50.524;8.684;2023-07-31T03:38:16;5.47;;;1.98;;
41201;SDS011;26936;50.524;8.684;2023-07-31T03:40:41;3.38;;;2.10;;
41201;SDS011;26936;50.524;8.684;2023-07-31T03:43:07;5.40;;;1.90;;
41201;SDS011;26936;50.524;8.684;2023-07-31T03:45:32;5.13;;;2.10;;
41201;SDS011;26936;50.524;8.684;2023-07-31T03:47:57;5.45;;;2.08;;
41201;SDS011;26936;50.524;8.684;2023-07-31T03:50:23;5.00;;;2.08;;
41201;SDS011;26936;50.524;8.684;2023-07-31T03:52:50;4.50;;;1.92;;
41201;SDS011;26936;50.524;8.684;2023-07-31T03:55:15;3.83;;;2.03;;
41201;SDS011;26936;50.524;8.684;2023-07-31T03:57:40;5.47;;;2.33;;
41201;SDS011;26936;50.524;8.684;2023-07-31T04:00:06;6.00;;;2.30;;
41201;SDS011;26936;50.524;8.684;2023-07-31T04:02:31;4.25;;;2.22;;
41201;SDS011;26936;50.524;8.684;2023-07-31T04:04:57;9.20;;;3.33;;
41201;SDS011;26936;50.524;8.684;2023-07-31T04:07:22;8.47;;;2.73;;
41201;SDS011;26936;50.524;8.684;2023-07-31T04:09:47;4.77;;;2.20;;
41201;SDS011;26936;50.524;8.684;2023-07-31T04:12:12;5.33;;;2.17;;
41201;SDS011;26936;50.524;8.684;2023-07-31T04:14:38;4.23;;;1.90;;
41201;SDS011;26936;50.524;8.684;2023-07-31T04:17:03;6.43;;;2.57;;
41201;SDS011;26936;50.524;8.684;2023-07-31T04:19:28;6.63;;;2.20;;
41201;SDS011;26936;50.524;8.684;2023-07-31T04:21:53;6.77;;;2.63;;
41201;SDS011;26936;50.524;8.684;2023-07-31T04:24:19;5.00;;;2.10;;
41201;SDS011;26936;50.524;8.684;2023-07-31T04:26:49;6.60;;;2.33;;
41201;SDS011;26936;50.524;8.684;2023-07-31T04:29:18;5.65;;;2.65;;
41201;SDS011;26936;50.524;8.684;2023-07-31T04:31:43;5.05;;;2.00;;
41201;SDS011;26936;50.524;8.684;2023-07-31T04:34:08;4.43;;;2.20;;
41201;SDS011;26936;50.524;8.684;2023-07-31T04:36:34;5.43;;;2.20;;
41201;SDS011;26936;50.524;8.684;2023-07-31T04:39:02;5.43;;;1.92;;
41201;SDS011;26936;50.524;8.684;2023-07-31T04:41:28;7.85;;;2.63;;
41201;SDS011;26936;50.524;8.684;2023-07-31T04:43:53;6.70;;;2.22;;
41201;SDS011;26936;50.524;8.684;2023-07-31T04:46:18;4.77;;;2.07;;
41201;SDS011;26936;50.524;8.684;2023-07-31T04:48:44;4.30;;;2.50;;
41201;SDS011;26936;50.524;8.684;2023-07-31T04:51:09;4.07;;;2.30;;
41201;SDS011;26936;50.524;8.684;2023-07-31T04:53:34;3.65;;;2.15;;
41201;SDS011;26936;50.524;8.684;2023-07-31T04:56:00;4.20;;;2.13;;
41201;SDS011;26936;50.524;8.684;2023-07-31T04:58:26;3.28;;;1.88;;
41201;SDS011;26936;50.524;8.684;2023-07-31T05:00:51;4.60;;;1.92;;
41201;SDS011;26936;50.524;8.684;2023-07-31T05:03:17;3.13;;;2.10;;
41201;SDS011;26936;50.524;8.684;2023-07-31T05:05:42;6.83;;;2.00;;
41201;SDS011;26936;50.524;8.684;2023-07-31T05:08:07;4.67;;;2.00;;
41201;SDS011;26936;50.524;8.684;2023-07-31T05:10:33;4.43;;;1.77;;
41201;SDS011;26936;50.524;8.684;2023-07-31T05:12:58;6.47;;;2.10;;
41201;SDS011;26936;50.524;8.684;2023-07-31T05:15:23;6.40;;;2.07;;
41201;SDS011;26936;50.524;8.684;2023-07-31T05:17:48;5.38;;;2.15;;
41201;SDS011;26936;50.524;8.684;2023-07-31T05:20:14;5.38;;;1.90;;
41201;SDS011;26936;50.524;8.684;2023-07-31T05:22:40;5.32;;;2.13;;
41201;SDS011;26936;50.524;8.684;2023-07-31T05:25:05;4.10;;;1.75;;
41201;SDS011;26936;50.524;8.684;2023-07-31T05:27:31;4.68;;;2.03;;
41201;SDS011;26936;50.524;8.684;2023-07-31T05:29:56;4.03;;;2.08;;
41201;SDS011;26936;50.524;8.684;2023-07-31T05:32:21;3.30;;;2.05;;
41201;SDS011;26936;50.524;8.684;2023-07-31T05:34:47;3.92;;;2.00;;
41201;SDS011;26936;50.524;8.684;2023-07-31T05:37:12;5.55;;;2.00;;
41201;SDS011;26936;50.524;8.684;2023-07-31T05:39:39;5.65;;;2.13;;
41201;SDS011;26936;50.524;8.684;2023-07-31T05:42:04;3.90;;;2.20;;
41201;SDS011;26936;50.524;8.684;2023-07-31T05:44:30;4.10;;;1.90;;
41201;SDS011;26936;50.524;8.684;2023-07-31T05:46:55;5.78;;;2.17;;
41201;SDS011;26936;50.524;8.684;2023-07-31T05:49:20;4.85;;;2.20;;
41201;SDS011;26936;50.524;8.684;2023-07-31T05:51:46;5.60;;;1.97;;
41201;SDS011;26936;50.524;8.684;2023-07-31T05:54:11;2.97;;;1.70;;
41201;SDS011;26936;50.524;8.684;2023-07-31T05:56:36;3.67;;;1.80;;
41201;SDS011;26936;50.524;8.684;2023-07-31T05:59:01;6.15;;;2.20;;
41201;SDS011;26936;50.524;8.684;2023-07-31T06:01:27;4.75;;;1.80;;
41201;SDS011;26936;50.524;8.684;2023-07-31T06:03:53;5.97;;;1.95;;
41201;SDS011;26936;50.524;8.684;2023-07-31T06:06:18;3.50;;;1.90;;
41201;SDS011;26936;50.524;8.684;2023-07-31T06:08:43;5.35;;;2.17;;
41201;SDS011;26936;50.524;8.684;2023-07-31T06:11:09;3.88;;;1.70;;
41201;SDS011;26936;50.524;8.684;2023-07-31T06:13:34;4.15;;;2.28;;
41201;SDS011;26936;50.524;8.684;2023-07-31T06:16:00;3.75;;;1.90;;
41201;SDS011;26936;50.524;8.684;2023-07-31T06:18:25;5.38;;;2.03;;
41201;SDS011;26936;50.524;8.684;2023-07-31T06:20:50;3.10;;;1.73;;
41201;SDS011;26936;50.524;8.684;2023-07-31T06:23:18;3.72;;;1.70;;
41201;SDS011;26936;50.524;8.684;2023-07-31T06:25:44;3.83;;;2.28;;
41201;SDS011;26936;50.524;8.684;2023-07-31T06:28:09;3.17;;;2.00;;
41201;SDS011;26936;50.524;8.684;2023-07-31T06:30:35;3.80;;;1.73;;
41201;SDS011;26936;50.524;8.684;2023-07-31T06:33:00;3.83;;;1.90;;
41201;SDS011;26936;50.524;8.684;2023-07-31T06:35:25;5.00;;;2.07;;
41201;SDS011;26936;50.524;8.684;2023-07-31T06:37:50;4.63;;;2.28;;
41201;SDS011;26936;50.524;8.684;2023-07-31T06:40:16;7.13;;;2.35;;
41201;SDS011;26936;50.524;8.684;2023-07-31T06:42:41;4.50;;;1.90;;
41201;SDS011;26936;50.524;8.684;2023-07-31T06:45:07;5.60;;;2.10;;
41201;SDS011;26936;50.524;8.684;2023-07-31T06:47:33;3.15;;;1.95;;
41201;SDS011;26936;50.524;8.684;2023-07-31T06:49:58;6.53;;;2.63;;
41201;SDS011;26936;50.524;8.684;2023-07-31T06:52:23;5.40;;;1.95;;
41201;SDS011;26936;50.524;8.684;2023-07-31T06:55:00;7.50;;;2.30;;
41201;SDS011;26936;50.524;8.684;2023-07-31T06:57:29;8.07;;;2.55;;
41201;SDS011;26936;50.524;8.684;2023-07-31T06:59:54;7.93;;;2.70;;
41201;SDS011;26936;50.524;8.684;2023-07-31T07:02:19;4.95;;;2.30;;
41201;SDS011;26936;50.524;8.684;2023-07-31T07:04:45;5.13;;;2.25;;
41201;SDS011;26936;50.524;8.684;2023-07-31T07:07:11;6.85;;;2.50;;
41201;SDS011;26936;50.524;8.684;2023-07-31T07:09:36;5.15;;;2.33;;
41201;SDS011;26936;50.524;8.684;2023-07-31T07:12:01;6.13;;;2.58;;
41201;SDS011;26936;50.524;8.684;2023-07-31T07:14:27;4.80;;;2.13;;
41201;SDS011;26936;50.524;8.684;2023-07-31T07:16:52;5.20;;;2.30;;
41201;SDS011;26936;50.524;8.684;2023-07-31T07:19:17;7.00;;;2.63;;
41201;SDS011;26936;50.524;8.684;2023-07-31T07:21:43;5.27;;;2.27;;
41201;SDS011;26936;50.524;8.684;2023-07-31T07:24:08;4.68;;;2.30;;
41201;SDS011;26936;50.524;8.684;2023-07-31T07:26:33;6.15;;;2.55;;
41201;SDS011;26936;50.524;8.684;2023-07-31T07:28:59;3.40;;;2.03;;
41201;SDS011;26936;50.524;8.684;2023-07-31T07:31:26;5.72;;;2.30;;
41201;SDS011;26936;50.524;8.684;2023-07-31T07:33:52;6.40;;;2.67;;
41201;SDS011;26936;50.524;8.684;2023-07-31T07:36:17;6.07;;;2.67;;
41201;SDS011;26936;50.524;8.684;2023-07-31T07:38:42;7.85;;;2.53;;
41201;SDS011;26936;50.524;8.684;2023-07-31T07:41:09;7.95;;;2.67;;
41201;SDS011;26936;50.524;8.684;2023-07-31T07:43:34;5.95;;;2.67;;
41201;SDS011;26936;50.524;8.684;2023-07-31T07:46:00;5.07;;;2.30;;
41201;SDS011;26936;50.524;8.684;2023-07-31T07:48:25;6.50;;;2.55;;
41201;SDS011;26936;50.524;8.684;2023-07-31T07:50:51;6.88;;;2.50;;
41201;SDS011;26936;50.524;8.684;2023-07-31T07:53:16;4.70;;;2.25;;
41201;SDS011;26936;50.524;8.684;2023-07-31T07:55:41;6.55;;;2.60;;
41201;SDS011;26936;50.524;8.684;2023-07-31T07:58:07;4.43;;;2.55;;
41201;SDS011;26936;50.524;8.684;2023-07-31T08:00:33;6.80;;;2.75;;
41201;SDS011;26936;50.524;8.684;2023-07-31T08:02:58;6.38;;;2.72;;
41201;SDS011;26936;50.524;8.684;2023-07-31T08:05:23;6.55;;;2.42;;
41201;SDS011;26936;50.524;8.684;2023-07-31T08:07:49;10.60;;;2.90;;
41201;SDS011;26936;50.524;8.684;2023-07-31T08:10:14;7.63;;;2.80;;
41201;SDS011;26936;50.524;8.684;2023-07-31T08:12:39;8.05;;;2.85;;
41201;SDS011;26936;50.524;8.684;2023-07-31T08:15:05;6.38;;;2.45;;
41201;SDS011;26936;50.524;8.684;2023-07-31T08:17:31;6.65;;;2.83;;
41201;SDS011;26936;50.524;8.684;2023-07-31T08:19:56;8.53;;;2.60;;
41201;SDS011;26936;50.524;8.684;2023-07-31T08:22:23;5.07;;;2.53;;
41201;SDS011;26936;50.524;8.684;2023-07-31T08:24:48;6.00;;;2.50;;
41201;SDS011;26936;50.524;8.684;2023-07-31T08:27:13;7.40;;;2.70;;
41201;SDS011;26936;50.524;8.684;2023-07-31T08:29:39;6.87;;;2.87;;
41201;SDS011;26936;50.524;8.684;2023-07-31T08:32:04;6.85;;;2.70;;
41201;SDS011;26936;50.524;8.684;2023-07-31T08:34:30;8.15;;;2.60;;
41201;SDS011;26936;50.524;8.684;2023-07-31T08:36:55;5.53;;;2.37;;
41201;SDS011;26936;50.524;8.684;2023-07-31T08:39:20;5.07;;;2.33;;
41201;SDS011;26936;50.524;8.684;2023-07-31T08:41:46;5.68;;;2.53;;
41201;SDS011;26936;50.524;8.684;2023-07-31T08:44:12;8.10;;;2.70;;
41201;SDS011;26936;50.524;8.684;2023-07-31T08:46:40;7.38;;;2.55;;
41201;SDS011;26936;50.524;8.684;2023-07-31T08:49:06;6.75;;;2.63;;
41201;SDS011;26936;50.524;8.684;2023-07-31T08:51:34;6.25;;;2.67;;
41201;SDS011;26936;50.524;8.684;2023-07-31T08:54:00;5.18;;;2.50;;
41201;SDS011;26936;50.524;8.684;2023-07-31T08:56:25;8.10;;;2.42;;
41201;SDS011;26936;50.524;8.684;2023-07-31T08:58:52;6.55;;;2.60;;
41201;SDS011;26936;50.524;8.684;2023-07-31T09:01:19;5.97;;;2.33;;
41201;SDS011;26936;50.524;8.684;2023-07-31T09:03:45;6.75;;;2.72;;
41201;SDS011;26936;50.524;8.684;2023-07-31T09:06:12;6.45;;;2.85;;
41201;SDS011;26936;50.524;8.684;2023-07-31T09:08:38;8.05;;;2.33;;
41201;SDS011;26936;50.524;8.684;2023-07-31T09:11:07;9.57;;;2.95;;
41201;SDS011;26936;50.524;8.684;2023-07-31T09:13:32;4.37;;;2.30;;
41201;SDS011;26936;50.524;8.684;2023-07-31T09:15:58;4.95;;;2.30;;
41201;SDS011;26936;50.524;8.684;2023-07-31T09:18:23;7.15;;;3.30;;
41201;SDS011;26936;50.524;8.684;2023-07-31T09:21:02;5.57;;;2.30;;
41201;SDS011;26936;50.524;8.684;2023-07-31T09:23:44;7.63;;;2.28;;
41201;SDS011;26936;50.524;8.684;2023-07-31T09:26:28;5.03;;;2.40;;
41201;SDS011;26936;50.524;8.684;2023-07-31T09:29:01;6.88;;;2.78;;
41201;SDS011;26936;50.524;8.684;2023-07-31T09:31:42;6.63;;;2.53;;
41201;SDS011;26936;50.524;8.684;2023-07-31T09:34:08;8.50;;;3.13;;
41201;SDS011;26936;50.524;8.684;2023-07-31T09:36:44;5.13;;;2.22;;
41201;SDS011;26936;50.524;8.684;2023-07-31T09:39:14;7.20;;;2.75;;
41201;SDS011;26936;50.524;8.684;2023-07-31T09:41:42;6.70;;;2.53;;
41201;SDS011;26936;50.524;8.684;2023-07-31T09:44:09;7.53;;;2.80;;
41201;SDS011;26936;50.524;8.684;2023-07-31T09:46:35;9.30;;;2.85;;
41201;SDS011;26936;50.524;8.684;2023-07-31T09:49:05;9.05;;;3.20;;
41201;SDS011;26936;50.524;8.684;2023-07-31T09:51:34;6.40;;;2.63;;
41201;SDS011;26936;50.524;8.684;2023-07-31T09:54:03;8.18;;;2.90;;
41201;SDS011;26936;50.524;8.684;2023-07-31T09:56:41;9.63;;;3.22;;
41201;SDS011;26936;50.524;8.684;2023-07-31T09:59:22;8.73;;;3.00;;
41201;SDS011;26936;50.524;8.684;2023-07-31T10:01:48;8.48;;;2.95;;
41201;SDS011;26936;50.524;8.684;2023-07-31T10:04:14;8.10;;;3.13;;
41201;SDS011;26936;50.524;8.684;2023-07-31T10:06:44;8.18;;;2.85;;
41201;SDS011;26936;50.524;8.684;2023-07-31T10:09:11;5.90;;;2.80;;
41201;SDS011;26936;50.524;8.684;2023-07-31T10:11:41;8.55;;;2.97;;
41201;SDS011;26936;50.524;8.684;2023-07-31T10:14:10;7.20;;;3.17;;
41201;SDS011;26936;50.524;8.684;2023-07-31T10:16:37;7.40;;;2.40;;
41201;SDS011;26936;50.524;8.684;2023-07-31T10:19:04;7.18;;;3.20;;
41201;SDS011;26936;50.524;8.684;2023-07-31T10:21:31;9.77;;;3.10;;
41201;SDS011;26936;50.524;8.684;2023-07-31T10:23:59;8.63;;;3.00;;
41201;SDS011;26936;50.524;8.684;2023-07-31T10:26:28;6.28;;;2.97;;
41201;SDS011;26936;50.524;8.684;2023-07-31T10:28:55;8.68;;;3.30;;
41201;SDS011;26936;50.524;8.684;2023-07-31T10:31:22;5.70;;;3.00;;
41201;SDS011;26936;50.524;8.684;2023-07-31T10:33:48;6.65;;;2.60;;
41201;SDS011;26936;50.524;8.684;2023-07-31T10:36:16;12.18;;;3.15;;
41201;SDS011;26936;50.524;8.684;2023-07-31T10:38:43;7.63;;;2.55;;
41201;SDS011;26936;50.524;8.684;2023-07-31T10:41:09;6.43;;;2.78;;
41201;SDS011;26936;50.524;8.684;2023-07-31T10:43:37;8.57;;;2.88;;
41201;SDS011;26936;50.524;8.684;2023-07-31T10:46:21;7.63;;;2.88;;
41201;SDS011;26936;50.524;8.684;2023-07-31T10:48:47;7.60;;;2.78;;
41201;SDS011;26936;50.524;8.684;2023-07-31T10:51:24;8.18;;;3.17;;
41201;SDS011;26936;50.524;8.684;2023-07-31T10:54:11;8.68;;;3.40;;
41201;SDS011;26936;50.524;8.684;2023-07-31T10:56:38;6.35;;;2.67;;
41201;SDS011;26936;50.524;8.684;2023-07-31T10:59:04;8.13;;;3.40;;
41201;SDS011;26936;50.524;8.684;2023-07-31T11:01:50;7.38;;;2.70;;
41201;SDS011;26936;50.524;8.684;2023-07-31T11:04:21;6.97;;;2.95;;
41201;SDS011;26936;50.524;8.684;2023-07-31T11:06:58;6.57;;;2.85;;
41201;SDS011;26936;50.524;8.684;2023-07-31T11:09:32;9.63;;;3.00;;
41201;SDS011;26936;50.524;8.684;2023-07-31T11:12:01;5.60;;;2.90;;
41201;SDS011;26936;50.524;8.684;2023-07-31T11:14:26;6.47;;;2.33;;
41201;SDS011;26936;50.524;8.684;2023-07-31T11:16:52;8.45;;;2.50;;
41201;SDS011;26936;50.524;8.684;2023-07-31T11:19:24;6.75;;;2.80;;
41201;SDS011;26936;50.524;8.684;2023-07-31T11:21:50;5.88;;;2.70;;
41201;SDS011;26936;50.524;8.684;2023-07-31T11:24:17;6.22;;;2.80;;
41201;SDS011;26936;50.524;8.684;2023-07-31T11:26:51;5.60;;;2.70;;
41201;SDS011;26936;50.524;8.684;2023-07-31T11:29:18;4.82;;;2.40;;
41201;SDS011;26936;50.524;8.684;2023-07-31T11:31:44;5.13;;;2.47;;
41201;SDS011;26936;50.524;8.684;2023-07-31T11:34:10;7.57;;;2.75;;
41201;SDS011;26936;50.524;8.684;2023-07-31T11:36:35;11.35;;;2.63;;
41201;SDS011;26936;50.524;8.684;2023-07-31T11:39:04;6.35;;;2.45;;
41201;SDS011;26936;50.524;8.684;2023-07-31T11:41:30;4.28;;;2.30;;
41201;SDS011;26936;50.524;8.684;2023-07-31T11:43:59;5.15;;;2.50;;
41201;SDS011;26936;50.524;8.684;2023-07-31T11:46:25;8.23;;;2.88;;
41201;SDS011;26936;50.524;8.684;2023-07-31T11:48:50;5.93;;;2.65;;
41201;SDS011;26936;50.524;8.684;2023-07-31T11:51:16;8.65;;;2.80;;
41201;SDS011;26936;50.524;8.684;2023-07-31T11:53:48;10.68;;;2.58;;
41201;SDS011;26936;50.524;8.684;2023-07-31T11:56:17;5.55;;;2.38;;
41201;SDS011;26936;50.524;8.684;2023-07-31T11:58:44;5.97;;;2.65;;
41201;SDS011;26936;50.524;8.684;2023-07-31T12:01:11;4.75;;;2.30;;
41201;SDS011;26936;50.524;8.684;2023-07-31T12:03:37;5.63;;;2.45;;
41201;SDS011;26936;50.524;8.684;2023-07-31T12:06:03;8.25;;;2.55;;
41201;SDS011;26936;50.524;8.684;2023-07-31T12:08:28;4.88;;;2.10;;
41201;SDS011;26936;50.524;8.684;2023-07-31T12:10:54;7.20;;;2.50;;
41201;SDS011;26936;50.524;8.684;2023-07-31T12:13:26;5.88;;;2.35;;
41201;SDS011;26936;50.524;8.684;2023-07-31T12:15:55;6.77;;;2.63;;
41201;SDS011;26936;50.524;8.684;2023-07-31T12:18:22;8.50;;;2.60;;
41201;SDS011;26936;50.524;8.684;2023-07-31T12:20:53;6.82;;;2.83;;
41201;SDS011;26936;50.524;8.684;2023-07-31T12:23:21;4.82;;;2.60;;
41201;SDS011;26936;50.524;8.684;2023-07-31T12:28:40;7.53;;;2.33;;
41201;SDS011;26936;50.524;8.684;2023-07-31T12:31:09;3.47;;;2.35;;
41201;SDS011;26936;50.524;8.684;2023-07-31T12:33:37;6.80;;;2.70;;
41201;SDS011;26936;50.524;8.684;2023-07-31T12:36:06;6.88;;;2.78;;
41201;SDS011;26936;50.524;8.684;2023-07-31T12:38:33;3.95;;;2.22;;
41201;SDS011;26936;50.524;8.684;2023-07-31T12:40:58;5.95;;;2.42;;
41201;SDS011;26936;50.524;8.684;2023-07-31T12:43:24;5.80;;;2.77;;
41201;SDS011;26936;50.524;8.684;2023-07-31T12:45:49;6.82;;;2.47;;
41201;SDS011;26936;50.524;8.684;2023-07-31T12:48:14;5.45;;;2.38;;
41201;SDS011;26936;50.524;8.684;2023-07-31T12:50:40;5.87;;;2.23;;
41201;SDS011;26936;50.524;8.684;2023-07-31T12:53:05;5.83;;;2.77;;
41201;SDS011;26936;50.524;8.684;2023-07-31T12:55:31;7.38;;;2.33;;
41201;SDS011;26936;50.524;8.684;2023-07-31T12:57:59;7.90;;;2.50;;
41201;SDS011;26936;50.524;8.684;2023-07-31T13:00:25;3.55;;;2.40;;
41201;SDS011;26936;50.524;8.684;2023-07-31T13:02:51;4.15;;;2.03;;
41201;SDS011;26936;50.524;8.684;2023-07-31T13:05:16;8.27;;;2.00;;
41201;SDS011;26936;50.524;8.684;2023-07-31T13:07:41;5.05;;;2.10;;
41201;SDS011;26936;50.524;8.684;2023-07-31T13:10:07;7.97;;;2.80;;
41201;SDS011;26936;50.524;8.684;2023-07-31T13:12:33;6.15;;;2.40;;
41201;SDS011;26936;50.524;8.684;2023-07-31T13:14:59;4.80;;;2.50;;
41201;SDS011;26936;50.524;8.684;2023-07-31T13:17:24;5.40;;;2.33;;
41201;SDS011;26936;50.524;8.684;2023-07-31T13:19:49;7.78;;;2.35;;
41201;SDS011;26936;50.524;8.684;2023-07-31T13:22:15;3.63;;;2.15;;
41201;SDS011;26936;50.524;8.684;2023-07-31T13:24:40;4.87;;;2.20;;
41201;SDS011;26936;50.524;8.684;2023-07-31T13:27:05;4.30;;;2.40;;
41201;SDS011;26936;50.524;8.684;2023-07-31T13:29:30;4.55;;;2.10;;
41201;SDS011;26936;50.524;8.684;2023-07-31T13:31:57;6.68;;;2.40;;
41201;SDS011;26936;50.524;8.684;2023-07-31T13:34:22;4.50;;;2.43;;
41201;SDS011;26936;50.524;8.684;2023-07-31T13:36:47;4.78;;;2.05;;
41201;SDS011;26936;50.524;8.684;2023-07-31T13:39:12;4.97;;;2.10;;
41201;SDS011;26936;50.524;8.684;2023-07-31T13:41:38;4.00;;;1.87;;
41201;SDS011;26936;50.524;8.684;2023-07-31T13:44:03;2.97;;;1.80;;
41201;SDS011;26936;50.524;8.684;2023-07-31T13:46:28;3.65;;;1.60;;
41201;SDS011;26936;50.524;8.684;2023-07-31T13:48:54;2.43;;;1.50;;
41201;SDS011;26936;50.524;8.684;2023-07-31T13:51:20;5.90;;;2.25;;
41201;SDS011;26936;50.524;8.684;2023-07-31T13:53:46;3.30;;;1.98;;
41201;SDS011;26936;50.524;8.684;2023-07-31T13:56:11;3.72;;;1.52;;
41201;SDS011;26936;50.524;8.684;2023-07-31T13:58:37;4.47;;;1.83;;
41201;SDS011;26936;50.524;8.684;2023-07-31T14:01:02;5.63;;;1.80;;
41201;SDS011;26936;50.524;8.684;2023-07-31T14:03:28;3.53;;;1.75;;
41201;SDS011;26936;50.524;8.684;2023-07-31T14:05:54;4.10;;;1.98;;
41201;SDS011;26936;50.524;8.684;2023-07-31T14:08:20;3.28;;;1.85;;
41201;SDS011;26936;50.524;8.684;2023-07-31T14:10:46;5.63;;;2.17;;
41201;SDS011;26936;50.524;8.684;2023-07-31T14:13:11;3.87;;;2.00;;
41201;SDS011;26936;50.524;8.684;2023-07-31T14:15:36;3.70;;;2.30;;
41201;SDS011;26936;50.524;8.684;2023-07-31T14:18:02;4.32;;;2.25;;
41201;SDS011;26936;50.524;8.684;2023-07-31T14:20:27;4.53;;;2.20;;
41201;SDS011;26936;50.524;8.684;2023-07-31T14:22:53;4.72;;;2.50;;
41201;SDS011;26936;50.524;8.684;2023-07-31T14:25:18;5.72;;;2.20;;
41201;SDS011;26936;50.524;8.684;2023-07-31T14:27:44;4.97;;;2.57;;
41201;SDS011;26936;50.524;8.684;2023-07-31T14:30:09;4.07;;;2.70;;
41201;SDS011;26936;50.524;8.684;2023-07-31T14:32:34;4.88;;;2.53;;
41201;SDS011;26936;50.524;8.684;2023-07-31T14:35:02;7.35;;;2.70;;
41201;SDS011;26936;50.524;8.684;2023-07-31T14:37:27;3.78;;;2.35;;
41201;SDS011;26936;50.524;8.684;2023-07-31T14:40:02;4.38;;;2.33;;
41201;SDS011;26936;50.524;8.684;2023-07-31T14:42:28;5.30;;;2.33;;
41201;SDS011;26936;50.524;8.684;2023-07-31T14:44:53;4.60;;;2.20;;
41201;SDS011;26936;50.524;8.684;2023-07-31T14:47:18;6.27;;;2.30;;
41201;SDS011;26936;50.524;8.684;2023-07-31T14:49:43;4.33;;;1.93;;
41201;SDS011;26936;50.524;8.684;2023-07-31T14:52:09;3.80;;;2.00;;
41201;SDS011;26936;50.524;8.684;2023-07-31T14:54:34;3.28;;;2.10;;